createdAt,value
2018-01-16T00:02:20.054Z,1.10
2018-01-16T00:04:47.533Z,1.08
2018-01-16T00:07:14.985Z,1.10
2018-01-16T00:09:42.461Z,1.04
2018-01-16T00:12:10.062Z,1.02
2018-01-16T00:14:37.525Z,1.01
2018-01-16T00:17:04.982Z,0.95
2018-01-16T00:19:32.478Z,0.88
2018-01-16T00:21:59.981Z,0.85
2018-01-16T00:24:27.461Z,0.81
2018-01-16T00:26:54.945Z,0.78
2018-01-16T00:29:22.894Z,0.75
2018-01-16T00:31:50.351Z,0.72
2018-01-16T00:34:17.826Z,0.76
2018-01-16T00:36:45.375Z,0.76
2018-01-16T00:39:12.925Z,0.74
2018-01-16T00:41:40.416Z,0.77
2018-01-16T00:44:07.918Z,0.81
2018-01-16T00:46:35.409Z,0.78
2018-01-16T00:49:02.906Z,0.80
2018-01-16T00:51:30.425Z,0.80
2018-01-16T00:53:57.967Z,0.77
2018-01-16T00:56:25.440Z,0.79
2018-01-16T00:58:53.096Z,0.79
2018-01-16T01:01:20.657Z,0.78
2018-01-16T01:03:48.141Z,0.76
2018-01-16T01:06:15.692Z,0.71
2018-01-16T01:08:43.212Z,0.66
2018-01-16T01:11:10.686Z,0.61
2018-01-16T01:13:38.221Z,0.55
2018-01-16T01:16:05.706Z,0.53
2018-01-16T01:18:33.231Z,0.50
2018-01-16T01:21:01.131Z,0.47
2018-01-16T01:23:28.625Z,0.42
2018-01-16T01:25:56.151Z,0.39
2018-01-16T01:28:23.700Z,0.40
2018-01-16T01:30:51.164Z,0.38
2018-01-16T01:33:18.647Z,0.38
2018-01-16T01:35:46.263Z,0.40
2018-01-16T01:38:13.738Z,0.39
2018-01-16T01:40:41.200Z,0.39
2018-01-16T01:43:08.727Z,0.42
2018-01-16T01:45:36.212Z,0.43
2018-01-16T01:48:03.665Z,0.46
2018-01-16T01:50:31.129Z,0.46
2018-01-16T01:52:58.601Z,0.47
2018-01-16T01:55:26.098Z,0.48
2018-01-16T01:57:53.689Z,0.53
2018-01-16T02:00:21.259Z,0.55
2018-01-16T02:02:48.741Z,0.52
2018-01-16T02:05:16.254Z,0.48
2018-01-16T02:07:43.716Z,0.45
2018-01-16T02:10:11.195Z,0.47
2018-01-16T02:12:38.673Z,0.48
2018-01-16T02:15:06.127Z,0.49
2018-01-16T02:17:33.593Z,0.46
2018-01-16T02:20:01.081Z,0.41
2018-01-16T02:22:28.573Z,0.35
2018-01-16T02:24:56.037Z,0.30
2018-01-16T02:27:23.657Z,0.30
2018-01-16T02:29:51.150Z,0.31
2018-01-16T02:32:18.607Z,0.31
2018-01-16T02:34:46.105Z,0.31
2018-01-16T02:37:13.633Z,0.27
2018-01-16T02:39:41.114Z,0.24
2018-01-16T02:42:08.571Z,0.24
2018-01-16T02:44:36.051Z,0.22
2018-01-16T02:47:03.525Z,0.24
2018-01-16T02:49:30.981Z,0.22
2018-01-16T02:51:58.676Z,0.21
2018-01-16T02:54:26.149Z,0.21
2018-01-16T02:56:53.669Z,0.22
2018-01-16T02:59:21.321Z,0.24
2018-01-16T03:01:48.776Z,0.25
2018-01-16T03:04:16.250Z,0.27
2018-01-16T03:06:43.718Z,0.28
2018-01-16T03:09:11.427Z,0.27
2018-01-16T03:11:38.890Z,0.27
2018-01-16T03:14:06.382Z,0.33
2018-01-16T03:16:33.878Z,0.36
2018-01-16T03:19:01.346Z,0.40
2018-01-16T03:21:28.825Z,0.43
2018-01-16T03:23:56.278Z,0.46
2018-01-16T03:26:23.753Z,0.48
2018-01-16T03:28:51.229Z,0.52
2018-01-16T03:31:18.674Z,0.53
2018-01-16T03:33:46.150Z,0.50
2018-01-16T03:36:13.622Z,0.46
2018-01-16T03:38:41.108Z,0.43
2018-01-16T03:41:08.563Z,0.44
2018-01-16T03:43:36.491Z,0.44
2018-01-16T03:46:03.950Z,0.44
2018-01-16T03:48:31.407Z,0.45
2018-01-16T03:50:58.870Z,0.48
2018-01-16T03:53:26.349Z,0.50
2018-01-16T03:55:53.819Z,0.50
2018-01-16T03:58:21.322Z,0.52
2018-01-16T04:00:48.804Z,0.48
2018-01-16T04:03:16.285Z,0.48
2018-01-16T04:05:43.774Z,0.47
2018-01-16T04:08:11.242Z,0.47
2018-01-16T04:10:38.713Z,0.46
2018-01-16T04:13:06.245Z,0.47
2018-01-16T04:15:33.713Z,0.46
2018-01-16T04:18:01.193Z,0.48
2018-01-16T04:20:28.697Z,0.51
2018-01-16T04:22:56.226Z,0.51
2018-01-16T04:25:23.731Z,0.54
2018-01-16T04:27:51.205Z,0.60
2018-01-16T04:30:18.678Z,0.66
2018-01-16T04:32:46.229Z,0.71
2018-01-16T04:35:13.686Z,0.74
2018-01-16T04:37:41.167Z,0.80
2018-01-16T04:40:08.698Z,0.86
2018-01-16T04:42:36.142Z,0.90
2018-01-16T04:45:03.593Z,0.91
2018-01-16T04:47:31.177Z,0.95
2018-01-16T04:49:58.747Z,0.99
2018-01-16T04:52:26.224Z,1.05
2018-01-16T04:54:53.777Z,1.08
2018-01-16T04:57:21.252Z,1.11
2018-01-16T04:59:48.710Z,1.15
2018-01-16T05:02:16.214Z,1.19
2018-01-16T05:04:43.675Z,1.22
2018-01-16T05:07:11.141Z,1.23
2018-01-16T05:09:38.640Z,1.25
2018-01-16T05:12:06.124Z,1.28
2018-01-16T05:14:33.590Z,1.31
2018-01-16T05:17:01.184Z,1.33
2018-01-16T05:19:28.745Z,1.35
2018-01-16T05:21:56.199Z,1.39
2018-01-16T05:24:23.765Z,1.41
2018-01-16T05:26:51.318Z,1.40
2018-01-16T05:29:18.777Z,1.41
2018-01-16T05:31:46.269Z,1.43
2018-01-16T05:34:13.716Z,1.46
2018-01-16T05:36:41.197Z,1.48
2018-01-16T05:39:08.670Z,1.49
2018-01-16T05:41:36.150Z,1.53
2018-01-16T05:44:03.625Z,1.57
2018-01-16T05:46:31.141Z,1.61
2018-01-16T05:48:58.601Z,1.62
2018-01-16T05:51:26.053Z,1.64
2018-01-16T05:53:53.525Z,1.67
2018-01-16T05:56:20.999Z,1.70
2018-01-16T05:58:48.472Z,1.72
2018-01-16T06:01:15.988Z,1.75
2018-01-16T06:03:43.457Z,1.80
2018-01-16T06:06:10.929Z,1.83
2018-01-16T06:08:38.410Z,1.85
2018-01-16T06:11:05.957Z,1.86
2018-01-16T06:13:33.418Z,1.88
2018-01-16T06:16:00.895Z,1.89
2018-01-16T06:18:28.352Z,1.93
2018-01-16T06:20:55.866Z,1.95
2018-01-16T06:23:23.375Z,1.98
2018-01-16T06:25:50.850Z,2.01
2018-01-16T06:28:18.361Z,2.03
2018-01-16T06:30:45.858Z,2.04
2018-01-16T06:33:13.321Z,2.02
2018-01-16T06:35:40.830Z,2.03
2018-01-16T06:38:08.506Z,2.04
2018-01-16T06:40:36.066Z,2.01
2018-01-16T06:43:03.534Z,2.02
2018-01-16T06:45:31.020Z,2.03
2018-01-16T06:47:58.475Z,2.03
2018-01-16T06:50:25.934Z,2.06
2018-01-16T06:52:53.428Z,2.01
2018-01-16T06:55:20.958Z,2.00
2018-01-16T06:57:48.438Z,1.98
2018-01-16T07:00:16.227Z,1.97
2018-01-16T07:02:43.785Z,1.98
2018-01-16T07:05:11.360Z,1.98
2018-01-16T07:07:38.838Z,1.98
2018-01-16T07:10:06.294Z,1.96
2018-01-16T07:12:33.826Z,1.96
2018-01-16T07:15:01.298Z,1.94
2018-01-16T07:17:28.760Z,1.92
2018-01-16T07:19:56.292Z,1.93
2018-01-16T07:22:23.773Z,1.94
2018-01-16T07:24:51.316Z,2.00
2018-01-16T07:27:18.813Z,2.12
2018-01-16T07:29:46.264Z,2.27
2018-01-16T07:32:13.714Z,2.34
2018-01-16T07:34:41.881Z,2.40
2018-01-16T07:37:09.338Z,2.44
2018-01-16T07:39:36.954Z,2.49
2018-01-16T07:42:04.475Z,2.53
2018-01-16T07:44:31.993Z,2.56
2018-01-16T07:46:59.444Z,2.60
2018-01-16T07:49:27.028Z,2.66
2018-01-16T07:51:54.590Z,2.71
2018-01-16T07:54:22.070Z,2.74
2018-01-16T07:56:49.575Z,2.80
2018-01-16T07:59:17.046Z,2.83
2018-01-16T08:01:44.526Z,2.83
2018-01-16T08:04:12.058Z,2.84
2018-01-16T08:06:39.509Z,2.85
2018-01-16T08:09:06.970Z,2.92
2018-01-16T08:11:34.472Z,2.98
2018-01-16T08:14:01.935Z,3.03
2018-01-16T08:16:29.385Z,3.14
2018-01-16T08:18:56.886Z,3.23
2018-01-16T08:21:24.353Z,3.35
2018-01-16T08:23:51.828Z,3.34
2018-01-16T08:26:19.760Z,3.27
2018-01-16T08:28:47.238Z,3.33
2018-01-16T08:31:14.713Z,3.36
2018-01-16T08:33:42.225Z,3.32
2018-01-16T08:36:09.692Z,3.26
2018-01-16T08:38:37.236Z,3.29
2018-01-16T08:41:04.821Z,3.32
2018-01-16T08:43:32.296Z,3.32
2018-01-16T08:45:59.843Z,3.34
2018-01-16T08:48:27.329Z,3.27
2018-01-16T08:50:54.862Z,3.23
2018-01-16T08:53:22.352Z,3.23
2018-01-16T08:55:49.861Z,3.32
2018-01-16T08:58:17.320Z,3.48
2018-01-16T09:00:44.887Z,3.52
2018-01-16T09:03:12.372Z,3.45
2018-01-16T09:05:39.897Z,3.37
2018-01-16T09:08:07.389Z,3.37
2018-01-16T09:10:34.880Z,3.40
2018-01-16T09:13:02.358Z,3.43
2018-01-16T09:15:29.852Z,3.52
2018-01-16T09:17:57.325Z,3.63
2018-01-16T09:20:24.801Z,3.77
2018-01-16T09:22:52.531Z,3.84
2018-01-16T09:25:19.970Z,3.81
2018-01-16T09:27:47.410Z,3.81
2018-01-16T09:30:14.988Z,3.79
2018-01-16T09:32:42.460Z,3.80
2018-01-16T09:35:09.907Z,3.86
2018-01-16T09:37:37.462Z,3.93
2018-01-16T09:40:04.930Z,4.04
2018-01-16T09:42:32.377Z,4.13
2018-01-16T09:44:59.860Z,4.20
2018-01-16T09:47:27.397Z,4.29
2018-01-16T09:49:54.872Z,4.32
2018-01-16T09:52:22.346Z,4.31
2018-01-16T09:54:49.790Z,4.24
2018-01-16T09:57:17.305Z,4.23
2018-01-16T09:59:44.785Z,4.30
2018-01-16T10:02:12.257Z,4.37
2018-01-16T10:04:39.730Z,4.50
2018-01-16T10:07:07.205Z,4.58
2018-01-16T10:09:34.661Z,4.61
2018-01-16T10:12:02.156Z,4.68
2018-01-16T10:14:29.624Z,4.78
2018-01-16T10:16:57.161Z,4.83
2018-01-16T10:19:24.599Z,4.83
2018-01-16T10:21:52.062Z,4.80
2018-01-16T10:24:19.514Z,4.78
2018-01-16T10:26:47.038Z,4.80
2018-01-16T10:29:14.512Z,4.86
2018-01-16T10:31:42.570Z,4.93
2018-01-16T10:34:10.048Z,4.97
2018-01-16T10:36:37.518Z,4.95
2018-01-16T10:39:05.037Z,4.86
2018-01-16T10:41:32.503Z,4.77
2018-01-16T10:43:59.970Z,4.73
2018-01-16T10:49:01.358Z,4.75
2018-01-16T10:51:29.014Z,4.80
2018-01-16T10:53:56.478Z,4.90
2018-01-16T10:56:23.930Z,4.97
2018-01-16T10:58:51.419Z,5.06
2018-01-16T11:01:18.869Z,5.22
2018-01-16T11:03:46.310Z,5.40
2018-01-16T11:06:13.778Z,5.52
2018-01-16T11:08:41.251Z,5.69
2018-01-16T11:11:08.713Z,5.75
2018-01-16T11:13:36.446Z,5.78
2018-01-16T11:16:03.945Z,5.71
2018-01-16T11:18:31.398Z,5.54
2018-01-16T11:20:58.898Z,5.50
2018-01-16T11:23:26.348Z,5.58
2018-01-16T11:25:53.790Z,5.59
2018-01-16T11:28:21.287Z,5.61
2018-01-16T11:30:48.771Z,5.54
2018-01-16T11:33:16.234Z,5.69
2018-01-16T11:35:43.736Z,5.77
2018-01-16T11:38:11.272Z,5.83
2018-01-16T11:40:38.747Z,5.96
2018-01-16T11:43:06.230Z,6.04
2018-01-16T11:45:33.730Z,5.91
2018-01-16T11:48:01.205Z,5.72
2018-01-16T11:50:28.978Z,5.61
2018-01-16T11:52:56.436Z,5.51
2018-01-16T11:55:23.897Z,5.45
2018-01-16T11:57:51.414Z,5.42
2018-01-16T12:00:18.865Z,5.41
2018-01-16T12:02:46.337Z,5.38
2018-01-16T12:05:13.800Z,5.36
2018-01-16T12:07:41.246Z,5.34
2018-01-16T12:10:08.757Z,5.37
2018-01-16T12:12:36.222Z,5.41
2018-01-16T12:15:03.693Z,5.45
2018-01-16T12:17:31.890Z,5.52
2018-01-16T12:19:59.483Z,5.67
2018-01-16T12:22:26.955Z,5.92
2018-01-16T12:24:54.680Z,6.23
2018-01-16T12:27:22.162Z,6.38
2018-01-16T12:29:49.616Z,6.58
2018-01-16T12:32:17.102Z,6.71
2018-01-16T12:34:44.571Z,6.75
2018-01-16T12:37:12.157Z,6.61
2018-01-16T12:39:39.606Z,6.40
2018-01-16T12:42:07.070Z,6.17
2018-01-16T12:44:34.559Z,5.93
2018-01-16T12:47:02.016Z,5.83
2018-01-16T12:49:29.457Z,5.71
2018-01-16T12:51:57.010Z,5.63
2018-01-16T12:54:24.570Z,5.54
2018-01-16T12:56:52.027Z,5.48
2018-01-16T12:59:19.507Z,5.44
2018-01-16T13:01:46.981Z,5.43
2018-01-16T13:04:14.460Z,5.53
2018-01-16T13:06:41.926Z,5.63
2018-01-16T13:09:09.390Z,5.64
2018-01-16T13:11:36.884Z,5.63
2018-01-16T13:14:04.434Z,5.61
2018-01-16T13:16:31.889Z,5.59
2018-01-16T13:18:59.425Z,5.61
2018-01-16T13:21:26.871Z,5.64
2018-01-16T13:23:54.334Z,5.65
2018-01-16T13:26:21.848Z,5.58
2018-01-16T13:28:49.305Z,5.61
2018-01-16T13:31:16.748Z,5.66
2018-01-16T13:33:44.589Z,5.62
2018-01-16T13:36:12.091Z,5.62
2018-01-16T13:38:39.555Z,5.61
2018-01-16T13:41:07.043Z,5.56
2018-01-16T13:43:34.763Z,5.51
2018-01-16T13:46:02.244Z,5.48
2018-01-16T13:48:29.971Z,5.42
2018-01-16T13:50:57.452Z,5.34
2018-01-16T13:53:24.924Z,5.26
2018-01-16T13:55:52.438Z,5.22
2018-01-16T13:58:19.894Z,5.20
2018-01-16T14:00:47.369Z,5.21
2018-01-16T14:03:14.891Z,5.25
2018-01-16T14:05:42.341Z,5.33
2018-01-16T14:08:09.799Z,5.39
2018-01-16T14:10:37.282Z,5.48
2018-01-16T14:13:04.818Z,5.46
2018-01-16T14:15:32.265Z,5.45
2018-01-16T14:17:59.730Z,5.39
2018-01-16T14:20:27.314Z,5.35
2018-01-16T14:22:54.793Z,5.32
2018-01-16T14:25:22.275Z,5.29
2018-01-16T14:27:49.742Z,5.27
2018-01-16T14:30:17.221Z,5.24
2018-01-16T14:32:44.750Z,5.17
2018-01-16T14:35:12.244Z,5.12
2018-01-16T14:37:39.717Z,5.07
2018-01-16T14:40:07.195Z,5.07
2018-01-16T14:42:34.656Z,5.08
2018-01-16T14:45:02.144Z,5.11
2018-01-16T14:47:29.630Z,5.12
2018-01-16T14:49:57.202Z,5.11
2018-01-16T14:52:24.654Z,5.07
2018-01-16T14:54:52.130Z,5.04
2018-01-16T14:57:19.577Z,5.03
2018-01-16T14:59:47.042Z,5.01
2018-01-16T15:02:14.685Z,5.00
2018-01-16T15:04:42.159Z,5.00
2018-01-16T15:07:09.713Z,5.00
2018-01-16T15:09:37.244Z,4.97
2018-01-16T15:12:04.703Z,4.95
2018-01-16T15:14:32.194Z,4.90
2018-01-16T15:16:59.678Z,4.83
2018-01-16T15:19:27.139Z,4.73
2018-01-16T15:21:54.661Z,4.65
2018-01-16T15:24:22.154Z,4.60
2018-01-16T15:26:49.622Z,4.58
2018-01-16T15:29:17.097Z,4.56
2018-01-16T15:31:44.599Z,4.56
2018-01-16T15:34:12.074Z,4.55
2018-01-16T15:36:39.549Z,4.53
2018-01-16T15:39:07.146Z,4.50
2018-01-16T15:41:34.585Z,4.50
2018-01-16T15:44:02.111Z,4.49
2018-01-16T15:46:29.675Z,4.52
2018-01-16T15:48:57.126Z,4.50
2018-01-16T15:51:24.605Z,4.49
2018-01-16T15:53:52.116Z,4.50
2018-01-16T15:56:19.566Z,4.51
2018-01-16T15:58:47.123Z,4.54
2018-01-16T16:01:14.602Z,4.58
2018-01-16T16:03:42.058Z,4.57
2018-01-16T16:06:09.542Z,4.59
2018-01-16T16:08:37.143Z,4.58
2018-01-16T16:11:04.590Z,4.46
2018-01-16T16:13:32.055Z,4.43
2018-01-16T16:15:59.550Z,4.38
2018-01-16T16:18:27.007Z,4.37
2018-01-16T16:20:54.469Z,4.37
2018-01-16T16:23:21.950Z,4.34
2018-01-16T16:25:49.449Z,4.58
2018-01-16T16:28:16.944Z,4.64
2018-01-16T16:30:44.429Z,4.43
2018-01-16T16:33:11.950Z,4.48
2018-01-16T16:35:39.429Z,4.30
2018-01-16T16:38:06.933Z,4.05
2018-01-16T16:40:34.379Z,3.84
2018-01-16T16:43:01.833Z,3.76
2018-01-16T16:45:29.398Z,3.73
2018-01-16T16:47:56.842Z,3.68
2018-01-16T16:50:24.314Z,3.68
2018-01-16T16:52:51.808Z,3.68
2018-01-16T16:55:19.358Z,3.67
2018-01-16T16:57:46.832Z,3.62
2018-01-16T17:00:15.227Z,3.53
2018-01-16T17:02:42.685Z,3.47
2018-01-16T17:05:10.207Z,3.29
2018-01-16T17:07:37.665Z,3.26
2018-01-16T17:10:05.111Z,3.28
2018-01-16T17:12:33.111Z,3.30
2018-01-16T17:15:01.282Z,3.25
2018-01-16T17:17:28.730Z,3.21
2018-01-16T17:19:56.341Z,3.09
2018-01-16T17:22:23.915Z,2.98
2018-01-16T17:24:51.390Z,2.88
2018-01-16T17:27:18.833Z,2.79
2018-01-16T17:29:46.307Z,2.78
2018-01-16T17:32:13.770Z,2.79
2018-01-16T17:34:41.224Z,2.76
2018-01-16T17:37:08.719Z,2.77
2018-01-16T17:39:36.238Z,2.77
2018-01-16T17:42:03.696Z,2.79
2018-01-16T17:44:31.159Z,2.83
2018-01-16T17:46:58.643Z,2.82
2018-01-16T17:49:26.146Z,2.85
2018-01-16T17:51:53.625Z,2.87
2018-01-16T17:54:21.146Z,2.90
2018-01-16T17:56:48.621Z,2.87
2018-01-16T17:59:16.283Z,2.93
2018-01-16T18:01:43.773Z,2.93
2018-01-16T18:04:11.253Z,2.89
2018-01-16T18:06:38.716Z,2.90
2018-01-16T18:09:06.207Z,2.95
2018-01-16T18:11:33.678Z,2.96
2018-01-16T18:14:01.124Z,2.98
2018-01-16T18:16:28.594Z,2.95
2018-01-16T18:18:56.094Z,2.94
2018-01-16T18:21:23.596Z,2.95
2018-01-16T18:23:51.101Z,2.94
2018-01-16T18:26:18.692Z,2.97
2018-01-16T18:28:46.161Z,2.93
2018-01-16T18:31:13.658Z,2.94
2018-01-16T18:33:41.216Z,2.98
2018-01-16T18:36:08.710Z,3.02
2018-01-16T18:38:36.454Z,2.98
2018-01-16T18:41:03.938Z,2.90
2018-01-16T18:43:31.460Z,2.82
2018-01-16T18:45:59.014Z,2.73
2018-01-16T18:48:26.543Z,2.65
2018-01-16T18:50:54.015Z,2.62
2018-01-16T18:53:21.465Z,2.58
2018-01-16T18:55:49.023Z,2.55
2018-01-16T18:58:16.469Z,2.51
2018-01-16T19:00:43.958Z,2.52
2018-01-16T19:03:11.454Z,2.47
2018-01-16T19:05:38.910Z,2.43
2018-01-16T19:08:06.381Z,2.44
2018-01-16T19:10:33.971Z,2.47
2018-01-16T19:13:01.436Z,2.41
2018-01-16T19:15:28.915Z,2.34
2018-01-16T19:17:56.420Z,2.29
2018-01-16T19:20:23.870Z,2.26
2018-01-16T19:22:51.318Z,2.27
2018-01-16T19:25:18.800Z,2.27
2018-01-16T19:27:46.256Z,2.25
2018-01-16T19:30:13.724Z,2.37
2018-01-16T19:32:41.219Z,2.49
2018-01-16T19:35:08.677Z,2.60
2018-01-16T19:37:36.154Z,2.62
2018-01-16T19:40:03.670Z,2.69
2018-01-16T19:42:31.134Z,2.75
2018-01-16T19:44:58.609Z,2.78
2018-01-16T19:47:26.143Z,2.79
2018-01-16T19:49:53.622Z,2.85
2018-01-16T19:52:21.969Z,2.85
2018-01-16T19:54:49.452Z,2.87
2018-01-16T19:57:16.932Z,2.86
2018-01-16T19:59:44.409Z,2.87
2018-01-16T20:02:11.878Z,2.87
2018-01-16T20:04:39.367Z,2.83
2018-01-16T20:07:06.841Z,2.83
2018-01-16T20:09:34.374Z,2.83
2018-01-16T20:12:01.939Z,2.82
2018-01-16T20:14:29.438Z,2.81
2018-01-16T20:16:56.893Z,2.77
2018-01-16T20:19:24.381Z,2.76
2018-01-16T20:21:52.030Z,2.72
2018-01-16T20:24:19.505Z,2.73
2018-01-16T20:26:46.958Z,2.74
2018-01-16T20:29:14.447Z,2.77
2018-01-16T20:31:41.909Z,2.79
2018-01-16T20:34:09.354Z,2.78
2018-01-16T20:36:37.018Z,2.77
2018-01-16T20:39:05.454Z,2.76
2018-01-16T20:41:32.966Z,2.77
2018-01-16T20:44:00.443Z,2.78
2018-01-16T20:46:27.937Z,2.77
2018-01-16T20:48:55.437Z,2.77
2018-01-16T20:51:23.119Z,2.77
2018-01-16T20:53:50.614Z,2.72
2018-01-16T20:56:18.082Z,2.67
2018-01-16T20:58:45.606Z,2.67
2018-01-16T21:01:13.052Z,2.67
2018-01-16T21:03:40.516Z,2.68
2018-01-16T21:06:07.990Z,2.64
2018-01-16T21:08:35.479Z,2.64
2018-01-16T21:11:02.964Z,2.66
2018-01-16T21:13:30.433Z,2.66
2018-01-16T21:15:57.886Z,2.68
2018-01-16T21:18:25.346Z,2.68
2018-01-16T21:20:52.830Z,2.65
2018-01-16T21:23:20.365Z,2.69
2018-01-16T21:25:47.842Z,2.70
2018-01-16T21:28:15.311Z,2.66
2018-01-16T21:30:42.794Z,2.68
2018-01-16T21:33:10.706Z,2.72
2018-01-16T21:35:38.203Z,2.76
2018-01-16T21:38:05.748Z,2.78
2018-01-16T21:40:33.493Z,2.77
2018-01-16T21:43:00.970Z,2.78
2018-01-16T21:45:28.445Z,2.76
2018-01-16T21:47:55.950Z,2.73
2018-01-16T21:50:23.430Z,2.72
2018-01-16T21:52:50.889Z,2.71
2018-01-16T21:55:18.365Z,2.74
2018-01-16T21:57:45.853Z,2.76
2018-01-16T22:00:13.329Z,2.81
2018-01-16T22:02:40.898Z,2.76
2018-01-16T22:05:08.379Z,2.81
2018-01-16T22:07:35.866Z,2.79
2018-01-16T22:10:03.351Z,2.77
2018-01-16T22:12:30.839Z,2.79
2018-01-16T22:14:58.284Z,2.76
2018-01-16T22:17:25.761Z,2.73
2018-01-16T22:19:53.979Z,2.68
2018-01-16T22:22:21.463Z,2.63
2018-01-16T22:24:48.950Z,2.57
2018-01-16T22:27:16.459Z,2.47
2018-01-16T22:29:43.924Z,2.37
2018-01-16T22:32:11.408Z,2.32
2018-01-16T22:34:39.095Z,2.28
2018-01-16T22:37:06.555Z,2.34
2018-01-16T22:39:34.021Z,2.43
2018-01-16T22:42:01.509Z,2.49
2018-01-16T22:44:28.996Z,2.48
2018-01-16T22:46:56.519Z,2.52
2018-01-16T22:49:24.014Z,2.58
2018-01-16T22:51:51.471Z,2.64
2018-01-16T22:54:18.966Z,2.71
2018-01-16T22:56:46.486Z,2.73
2018-01-16T22:59:13.965Z,2.76
2018-01-16T23:01:41.449Z,2.77
2018-01-16T23:04:08.931Z,2.75
2018-01-16T23:06:36.415Z,2.74
2018-01-16T23:09:03.980Z,2.70
2018-01-16T23:11:31.452Z,2.65
2018-01-16T23:13:58.936Z,2.59
2018-01-16T23:16:26.427Z,2.49
2018-01-16T23:18:53.894Z,2.40
2018-01-16T23:21:21.394Z,2.31
2018-01-16T23:23:48.903Z,2.19
2018-01-16T23:26:17.223Z,2.12
2018-01-16T23:28:44.718Z,2.08
2018-01-16T23:31:12.220Z,2.07
2018-01-16T23:33:39.797Z,2.04
2018-01-16T23:36:07.262Z,2.05
2018-01-16T23:38:34.748Z,1.99
2018-01-16T23:41:02.210Z,1.95
2018-01-16T23:43:29.675Z,1.91
2018-01-16T23:45:57.174Z,1.88
2018-01-16T23:48:24.649Z,1.86
2018-01-16T23:50:52.125Z,1.80
2018-01-16T23:53:19.602Z,1.76
2018-01-16T23:55:47.062Z,1.83
2018-01-16T23:58:14.533Z,1.86
